クライストチャーチ の空港の天気 - METARとTAF

クライストチャーチ国際空港 ( NZCH / CHC ) - ニュージーランド クライストチャーチ
飛行場実況気象(Metar)
観測時間01/20 15:30 NZDT (01/20 02:30 UTC)
風向・風速東 7m/s
視程10km以上
天気現象
なし
気温23℃
湿度44%
気圧1000hPa
METARNZCH 200230Z AUTO 09013KT 050V140 9999 NCD 23/10 Q1000 NOSIG
過去の天気等 Google飛行場航空写真 Wunderground天気予報

過去48時間のMETAR

飛行場予報(TAF)
発表時間: 1/20 12:02 NZDT (1/19 23:02 UTC)
予報対象時間: 20日13時 NZDT ~ 21日13時 NZDT
風向・風速西北西 4m/s
視程10km以上
なし
20日13時 NZDT ~ 20日15時 NZDT に徐々に
風向・風速東北東 6m/s
20日16時 NZDT ~ 20日18時 NZDT に徐々に
風向・風速北北西 8m/s 瞬間風速 15m/s
20日21時 NZDT ~ 20日23時 NZDT に徐々に
風向・風速北北西 6m/s
21日1時 NZDT ~ 21日3時 NZDT に徐々に
風向・風速西 3m/s
TAF NZCH 192302Z 2000/2100 30008KT CAVOK
BECMG 2000/2002 06012KT
BECMG 2003/2005 33015G30KT
BECMG 2008/2010 33012KT
BECMG 2012/2014 27005KT